createdAt,value
2022-10-10T00:02:22.792Z,2.05
2022-10-10T00:05:24.936Z,2.20
2022-10-10T00:08:26.804Z,2.40
2022-10-10T00:11:28.697Z,2.10
2022-10-10T00:14:32.644Z,1.88
2022-10-10T00:17:34.630Z,1.83
2022-10-10T00:20:36.509Z,2.00
2022-10-10T00:23:38.685Z,2.00
2022-10-10T00:26:40.619Z,2.03
2022-10-10T00:29:43.883Z,1.73
2022-10-10T00:32:45.791Z,1.73
2022-10-10T00:35:48.443Z,1.77
2022-10-10T00:38:50.336Z,1.65
2022-10-10T00:41:52.171Z,1.75
2022-10-10T00:45:32.414Z,1.75
2022-10-10T00:48:39.287Z,2.78
2022-10-10T00:51:42.432Z,1.67
2022-10-10T00:54:44.345Z,2.00
2022-10-10T00:57:46.575Z,2.28
2022-10-10T01:00:48.749Z,1.90
2022-10-10T01:03:54.533Z,1.80
2022-10-10T01:06:57.226Z,2.63
2022-10-10T01:10:03.012Z,2.00
2022-10-10T01:13:15.023Z,1.92
2022-10-10T01:16:23.707Z,1.88
2022-10-10T01:19:56.243Z,2.28
2022-10-10T01:23:18.166Z,2.28
2022-10-10T01:26:50.464Z,1.85
2022-10-10T01:29:57.146Z,1.90
2022-10-10T01:33:06.838Z,2.00
2022-10-10T01:36:17.500Z,1.75
2022-10-10T01:39:27.495Z,1.83
2022-10-10T01:42:37.262Z,1.92
2022-10-10T01:45:46.043Z,1.75
2022-10-10T01:48:51.372Z,1.95
2022-10-10T01:52:04.104Z,1.85
2022-10-10T01:55:32.709Z,1.88
2022-10-10T01:58:46.872Z,2.00
2022-10-10T02:01:55.907Z,1.92
2022-10-10T02:05:03.957Z,1.70
2022-10-10T02:08:09.959Z,2.03
2022-10-10T02:11:12.549Z,2.00
2022-10-10T02:14:18.948Z,2.08
2022-10-10T02:17:26.101Z,1.75
2022-10-10T02:20:30.455Z,2.30
2022-10-10T02:23:33.636Z,2.00
2022-10-10T02:26:37.302Z,1.88
2022-10-10T02:29:43.598Z,1.92
2022-10-10T02:32:49.587Z,1.90
2022-10-10T02:35:53.464Z,1.63
2022-10-10T02:38:57.242Z,1.92
2022-10-10T02:41:59.088Z,1.77
2022-10-10T02:45:01.940Z,2.00
2022-10-10T02:48:05.347Z,1.88
2022-10-10T02:51:09.337Z,1.98
2022-10-10T02:54:11.216Z,2.00
2022-10-10T02:57:13.079Z,1.88
2022-10-10T03:00:16.052Z,1.98
2022-10-10T03:03:19.508Z,2.30
2022-10-10T03:06:21.442Z,1.80
2022-10-10T03:09:23.348Z,1.85
2022-10-10T03:12:25.384Z,1.85
2022-10-10T03:15:27.285Z,1.83
2022-10-10T03:18:30.664Z,2.10
2022-10-10T03:21:32.534Z,1.60
2022-10-10T03:24:34.449Z,1.92
2022-10-10T03:27:36.334Z,2.25
2022-10-10T03:30:38.959Z,1.90
2022-10-10T03:33:42.279Z,2.42
2022-10-10T03:36:44.177Z,2.25
2022-10-10T03:39:46.091Z,2.00
2022-10-10T03:42:48.187Z,2.20
2022-10-10T03:45:50.669Z,1.88
2022-10-10T03:48:54.259Z,1.75
2022-10-10T03:51:56.164Z,2.20
2022-10-10T03:54:58.071Z,1.80
2022-10-10T03:57:59.978Z,1.90
2022-10-10T04:01:03.882Z,2.17
2022-10-10T04:04:07.218Z,2.20
2022-10-10T04:07:10.357Z,2.42
2022-10-10T04:10:12.298Z,1.65
2022-10-10T04:13:14.165Z,2.15
2022-10-10T04:16:16.018Z,2.10
2022-10-10T04:19:19.307Z,2.25
2022-10-10T04:22:21.254Z,2.10
2022-10-10T04:25:23.180Z,2.72
2022-10-10T04:28:25.098Z,2.25
2022-10-10T04:31:27.093Z,2.42
2022-10-10T04:34:30.498Z,1.80
2022-10-10T04:37:32.414Z,2.67
2022-10-10T04:40:36.194Z,2.95
2022-10-10T04:43:38.105Z,2.40
2022-10-10T04:46:39.990Z,2.00
2022-10-10T04:49:43.533Z,2.38
2022-10-10T04:52:45.453Z,2.58
2022-10-10T04:55:47.506Z,3.13
2022-10-10T04:58:49.406Z,4.50
2022-10-10T05:01:51.416Z,7.22
2022-10-10T05:04:54.714Z,9.95
2022-10-10T05:07:56.765Z,7.20
2022-10-10T05:10:58.747Z,5.53
2022-10-10T05:14:00.700Z,2.55
2022-10-10T05:17:02.675Z,2.20
2022-10-10T05:20:06.945Z,2.30
2022-10-10T05:23:08.848Z,3.55
2022-10-10T05:26:11.695Z,2.63
2022-10-10T05:29:13.557Z,3.88
2022-10-10T05:32:15.489Z,7.65
2022-10-10T05:35:18.926Z,8.32
2022-10-10T05:38:22.551Z,3.70
2022-10-10T05:41:24.433Z,2.88
2022-10-10T05:44:26.550Z,2.60
2022-10-10T05:47:28.538Z,4.18
2022-10-10T05:50:35.290Z,4.70
2022-10-10T05:53:37.193Z,3.50
2022-10-10T05:56:39.094Z,3.50
2022-10-10T05:59:40.974Z,3.13
2022-10-10T06:02:42.971Z,2.42
2022-10-10T06:05:47.492Z,3.25
2022-10-10T06:08:49.457Z,2.83
2022-10-10T06:11:51.352Z,2.45
2022-10-10T06:14:53.314Z,2.90
2022-10-10T06:17:55.241Z,2.70
2022-10-10T06:21:01.615Z,2.90
2022-10-10T06:24:03.732Z,7.03
2022-10-10T06:27:05.639Z,5.43
2022-10-10T06:30:08.872Z,3.33
2022-10-10T06:33:12.021Z,3.00
2022-10-10T06:36:16.667Z,2.65
2022-10-10T06:39:19.049Z,2.33
2022-10-10T06:42:21.038Z,3.20
2022-10-10T06:45:22.927Z,2.95
2022-10-10T06:48:24.977Z,3.00
2022-10-10T06:51:28.277Z,3.38
2022-10-10T06:54:30.262Z,3.33
2022-10-10T06:57:32.119Z,3.53
2022-10-10T07:00:34.043Z,3.65
2022-10-10T07:03:36.198Z,3.40
2022-10-10T07:06:39.902Z,3.42
2022-10-10T07:09:41.790Z,3.28
2022-10-10T07:12:44.984Z,3.20
2022-10-10T07:15:47.350Z,3.00
2022-10-10T07:18:49.255Z,3.00
2022-10-10T07:21:52.498Z,3.47
2022-10-10T07:24:54.518Z,3.35
2022-10-10T07:27:56.513Z,3.60
2022-10-10T07:31:00.500Z,3.20
2022-10-10T07:34:02.657Z,3.60
2022-10-10T07:37:05.965Z,3.90
2022-10-10T07:40:09.495Z,4.28
2022-10-10T07:43:11.459Z,4.00
2022-10-10T07:46:16.472Z,3.50
2022-10-10T07:49:18.413Z,4.30
2022-10-10T07:52:21.792Z,4.72
2022-10-10T07:55:23.858Z,4.25
2022-10-10T07:58:25.931Z,4.25
2022-10-10T08:01:28.013Z,4.60
2022-10-10T08:04:30.164Z,3.72
2022-10-10T08:07:33.470Z,4.05
2022-10-10T08:10:35.443Z,3.75
2022-10-10T08:13:38.279Z,3.50
2022-10-10T08:16:40.184Z,3.88
2022-10-10T08:19:42.079Z,3.80
2022-10-10T08:22:45.414Z,3.65
2022-10-10T08:25:47.348Z,3.65
2022-10-10T08:28:49.466Z,3.22
2022-10-10T08:31:51.410Z,3.90
2022-10-10T08:34:53.404Z,3.63
2022-10-10T08:37:56.672Z,3.10
2022-10-10T08:41:00.709Z,3.17
2022-10-10T08:44:06.749Z,3.00
2022-10-10T08:47:15.208Z,3.70
2022-10-10T08:50:21.713Z,3.27
2022-10-10T08:53:31.815Z,3.20
2022-10-10T08:56:35.045Z,3.38
2022-10-10T08:59:39.930Z,3.25
2022-10-10T09:02:55.792Z,3.65
2022-10-10T09:06:16.997Z,3.20
2022-10-10T09:09:29.914Z,3.28
2022-10-10T09:12:41.953Z,3.40
2022-10-10T09:15:52.425Z,3.50
2022-10-10T09:19:03.647Z,3.67
2022-10-10T09:22:13.386Z,3.22
2022-10-10T09:25:21.564Z,3.20
2022-10-10T09:28:36.036Z,3.05
2022-10-10T09:31:42.392Z,2.97
2022-10-10T09:34:48.375Z,3.35
2022-10-10T09:37:53.645Z,3.72
2022-10-10T09:41:02.350Z,3.10
2022-10-10T09:44:06.852Z,3.53
2022-10-10T09:47:12.316Z,3.00
2022-10-10T09:50:15.580Z,3.10
2022-10-10T09:53:17.537Z,3.13
2022-10-10T09:56:23.846Z,3.15
2022-10-10T09:59:40.855Z,3.17
2022-10-10T10:02:42.811Z,3.15
2022-10-10T10:05:53.038Z,3.17
2022-10-10T10:08:54.972Z,3.40
2022-10-10T10:11:59.013Z,2.60
2022-10-10T10:15:04.907Z,2.72
2022-10-10T10:18:10.706Z,2.50
2022-10-10T10:21:22.534Z,3.17
2022-10-10T10:24:30.668Z,2.95
2022-10-10T10:27:33.936Z,2.50
2022-10-10T10:30:35.998Z,2.60
2022-10-10T10:33:46.659Z,2.40
2022-10-10T10:36:57.292Z,2.80
2022-10-10T10:40:18.264Z,2.78
2022-10-10T10:43:48.513Z,2.38
2022-10-10T10:47:04.697Z,2.53
2022-10-10T10:50:26.628Z,2.85
2022-10-10T10:53:39.394Z,2.72
2022-10-10T10:56:50.675Z,2.40
2022-10-10T11:00:26.521Z,2.60
2022-10-10T11:05:15.742Z,2.90
2022-10-10T11:07:19.373Z,2.60
2022-10-10T11:10:30.576Z,3.15
2022-10-10T11:13:39.445Z,2.53
2022-10-10T11:16:49.459Z,2.53
2022-10-10T11:19:58.541Z,2.85
2022-10-10T11:23:08.854Z,2.30
2022-10-10T11:26:18.834Z,2.30
2022-10-10T11:29:25.613Z,2.33
2022-10-10T11:32:37.117Z,2.00
2022-10-10T11:35:44.813Z,2.25
2022-10-10T11:38:53.104Z,2.65
2022-10-10T11:41:59.216Z,2.70
2022-10-10T11:45:06.331Z,2.58
2022-10-10T11:48:21.243Z,2.55
2022-10-10T11:51:35.685Z,3.22
2022-10-10T11:54:44.415Z,7.15
2022-10-10T11:57:52.723Z,3.92
2022-10-10T12:00:58.092Z,3.17
2022-10-10T12:04:01.426Z,2.90
2022-10-10T12:07:06.614Z,3.00
2022-10-10T12:10:18.726Z,3.25
2022-10-10T12:13:28.460Z,3.45
2022-10-10T12:16:34.223Z,3.47
2022-10-10T12:19:37.655Z,3.75
2022-10-10T12:22:39.722Z,3.50
2022-10-10T12:25:43.668Z,3.58
2022-10-10T12:29:01.019Z,4.45
2022-10-10T12:32:23.715Z,5.78
2022-10-10T12:35:41.470Z,4.38
2022-10-10T12:39:24.618Z,3.97
2022-10-10T12:42:28.429Z,5.18
2022-10-10T12:46:06.540Z,4.45
2022-10-10T12:49:19.859Z,3.70
2022-10-10T12:52:25.841Z,4.80
2022-10-10T12:55:30.715Z,4.10
2022-10-10T12:58:35.651Z,4.45
2022-10-10T13:01:40.824Z,4.63
2022-10-10T13:04:45.506Z,4.35
2022-10-10T13:07:50.301Z,4.63
2022-10-10T13:11:03.988Z,4.25
2022-10-10T13:14:08.641Z,4.38
2022-10-10T13:17:26.048Z,4.70
2022-10-10T13:20:31.027Z,5.18
2022-10-10T13:23:35.873Z,4.82
2022-10-10T13:26:39.929Z,4.88
2022-10-10T13:29:42.007Z,5.50
2022-10-10T13:32:44.131Z,4.82
2022-10-10T13:35:48.531Z,5.15
2022-10-10T13:38:52.024Z,3.67
2022-10-10T13:41:54.857Z,3.78
2022-10-10T13:44:57.457Z,3.90
2022-10-10T13:48:27.547Z,4.55
2022-10-10T13:51:43.202Z,4.45
2022-10-10T13:54:48.863Z,4.57
2022-10-10T13:57:51.543Z,5.25
2022-10-10T14:00:58.498Z,5.63
2022-10-10T14:04:21.866Z,5.47
2022-10-10T14:07:25.960Z,5.53
2022-10-10T14:10:30.874Z,5.90
2022-10-10T14:13:34.904Z,5.57
2022-10-10T14:16:36.857Z,5.43
2022-10-10T14:19:39.278Z,5.35
2022-10-10T14:22:41.422Z,5.57
2022-10-10T14:25:48.145Z,5.13
2022-10-10T14:28:50.289Z,5.15
2022-10-10T14:31:52.165Z,5.38
2022-10-10T14:34:54.075Z,5.78
2022-10-10T14:37:56.016Z,5.40
2022-10-10T14:41:00.242Z,5.50
2022-10-10T14:44:02.501Z,6.05
2022-10-10T14:47:04.451Z,5.57
2022-10-10T14:50:15.580Z,5.93
2022-10-10T14:53:17.478Z,5.93
2022-10-10T14:56:20.727Z,5.70
2022-10-10T14:59:46.109Z,6.68
2022-10-10T15:02:45.778Z,6.25
2022-10-10T15:05:48.050Z,6.45
2022-10-10T15:08:50.244Z,5.90
2022-10-10T15:11:53.469Z,6.38
2022-10-10T15:14:55.430Z,6.28
2022-10-10T15:17:58.192Z,6.15
2022-10-10T15:21:00.293Z,6.50
2022-10-10T15:24:02.602Z,6.45
2022-10-10T15:27:05.957Z,6.40
2022-10-10T15:30:09.061Z,5.78
2022-10-10T15:33:11.042Z,4.22
2022-10-10T15:36:16.960Z,3.08
2022-10-10T15:39:20.975Z,3.05
2022-10-10T15:42:24.295Z,3.40
2022-10-10T15:48:48.205Z,3.45
2022-10-10T15:51:50.074Z,3.53
2022-10-10T15:54:52.610Z,3.85
2022-10-10T15:57:56.058Z,4.10
2022-10-10T16:00:58.033Z,3.53
2022-10-10T16:04:02.319Z,3.08
2022-10-10T16:07:24.525Z,3.10
2022-10-10T16:10:26.825Z,3.22
2022-10-10T16:13:30.099Z,3.22
2022-10-10T16:16:32.044Z,3.00
2022-10-10T16:19:33.942Z,2.83
2022-10-10T16:22:35.849Z,3.15
2022-10-10T16:25:37.727Z,3.05
2022-10-10T16:28:41.250Z,3.00
2022-10-10T16:31:43.140Z,3.28
2022-10-10T16:34:45.805Z,3.38
2022-10-10T16:37:47.787Z,4.65
2022-10-10T16:40:49.731Z,4.00
2022-10-10T16:43:53.282Z,3.47
2022-10-10T16:46:55.171Z,3.70
2022-10-10T16:49:57.163Z,4.00
2022-10-10T16:52:59.028Z,3.70
2022-10-10T16:56:02.244Z,3.70
2022-10-10T16:59:05.550Z,3.65
2022-10-10T17:02:07.447Z,4.00
2022-10-10T17:05:09.882Z,4.00
2022-10-10T17:08:11.978Z,4.40
2022-10-10T17:11:14.502Z,3.97
2022-10-10T17:14:17.837Z,4.30
2022-10-10T17:17:19.648Z,3.50
2022-10-10T17:20:21.782Z,3.65
2022-10-10T17:23:23.626Z,3.30
2022-10-10T17:26:25.776Z,3.90
2022-10-10T17:29:29.045Z,3.70
2022-10-10T17:32:31.090Z,4.10
2022-10-10T17:35:32.922Z,4.03
2022-10-10T17:38:40.096Z,3.90
2022-10-10T17:41:42.469Z,3.58
2022-10-10T17:44:51.411Z,3.70
2022-10-10T17:47:54.510Z,4.45
2022-10-10T17:50:59.548Z,4.30
2022-10-10T17:54:02.662Z,4.72
2022-10-10T17:57:04.604Z,4.18
2022-10-10T18:00:09.816Z,3.88
2022-10-10T18:03:12.639Z,4.20
2022-10-10T18:06:17.452Z,3.55
2022-10-10T18:09:19.973Z,3.55
2022-10-10T18:12:22.077Z,3.92
2022-10-10T18:15:25.419Z,3.50
2022-10-10T18:18:27.272Z,4.10
2022-10-10T18:21:29.641Z,3.83
2022-10-10T18:24:31.908Z,3.95
2022-10-10T18:27:34.142Z,3.92
2022-10-10T18:30:40.350Z,3.95
2022-10-10T18:33:43.295Z,3.83
2022-10-10T18:36:45.519Z,3.85
2022-10-10T18:39:47.494Z,4.22
2022-10-10T18:42:49.479Z,3.90
2022-10-10T18:45:52.917Z,4.15
2022-10-10T18:48:55.115Z,4.30
2022-10-10T18:51:57.038Z,4.30
2022-10-10T18:54:58.964Z,4.30
2022-10-10T18:58:00.866Z,4.45
2022-10-10T19:01:06.043Z,4.20
2022-10-10T19:04:10.453Z,4.45
2022-10-10T19:07:12.391Z,4.43
2022-10-10T19:10:14.253Z,4.53
2022-10-10T19:13:17.369Z,4.97
2022-10-10T19:16:21.729Z,4.55
2022-10-10T19:19:23.644Z,5.10
2022-10-10T19:22:25.836Z,5.10
2022-10-10T19:25:28.006Z,6.00
2022-10-10T19:28:30.288Z,5.65
2022-10-10T19:31:34.101Z,5.03
2022-10-10T19:34:36.299Z,5.63
2022-10-10T19:37:38.250Z,5.55
2022-10-10T19:40:43.853Z,4.95
2022-10-10T19:43:49.590Z,4.78
2022-10-10T19:46:53.672Z,4.80
2022-10-10T19:49:55.666Z,5.03
2022-10-10T19:52:59.275Z,5.32
2022-10-10T19:56:05.551Z,4.05
2022-10-10T19:59:07.963Z,4.95
2022-10-10T20:02:11.773Z,4.38
2022-10-10T20:05:13.921Z,4.45
2022-10-10T20:08:15.934Z,5.15
2022-10-10T20:11:18.983Z,4.68
2022-10-10T20:14:20.924Z,4.60
2022-10-10T20:17:24.399Z,5.40
2022-10-10T20:20:26.315Z,5.13
2022-10-10T20:23:28.317Z,4.50
2022-10-10T20:26:30.201Z,4.72
2022-10-10T20:29:32.473Z,4.63
2022-10-10T20:32:35.732Z,4.88
2022-10-10T20:35:37.817Z,5.40
2022-10-10T20:38:39.757Z,4.97
2022-10-10T20:41:42.460Z,4.95
2022-10-10T20:44:44.629Z,4.75
2022-10-10T20:47:47.947Z,5.05
2022-10-10T20:50:49.864Z,5.45
2022-10-10T20:53:56.772Z,4.97
2022-10-10T20:56:59.179Z,5.22
2022-10-10T21:00:01.043Z,5.03
2022-10-10T21:03:04.472Z,4.43
2022-10-10T21:06:09.152Z,4.80
2022-10-10T21:09:13.419Z,5.00
2022-10-10T21:12:15.789Z,4.50
2022-10-10T21:15:18.073Z,4.10
2022-10-10T21:18:21.475Z,4.57
2022-10-10T21:21:23.822Z,3.70
2022-10-10T21:24:25.704Z,4.75
2022-10-10T21:27:27.580Z,4.60
2022-10-10T21:30:29.793Z,3.85
2022-10-10T21:33:34.287Z,4.22
2022-10-10T21:36:37.082Z,4.50
2022-10-10T21:39:39.071Z,4.38
2022-10-10T21:42:41.256Z,3.58
2022-10-10T21:45:43.819Z,3.60
2022-10-10T21:48:47.150Z,3.47
2022-10-10T21:51:49.067Z,3.80
2022-10-10T21:54:51.079Z,3.42
2022-10-10T21:57:53.839Z,3.42
2022-10-10T22:00:55.825Z,3.75
2022-10-10T22:04:01.418Z,4.00
2022-10-10T22:07:03.339Z,3.42
2022-10-10T22:10:11.847Z,3.67
2022-10-10T22:13:13.737Z,3.73
2022-10-10T22:16:15.879Z,3.85
2022-10-10T22:19:19.540Z,3.20
2022-10-10T22:22:21.552Z,3.20
2022-10-10T22:25:23.629Z,3.25
2022-10-10T22:28:26.948Z,3.40
2022-10-10T22:31:29.170Z,2.67
2022-10-10T22:34:32.483Z,3.20
2022-10-10T22:37:34.385Z,3.10
2022-10-10T22:40:36.284Z,3.13
2022-10-10T22:43:38.215Z,2.85
2022-10-10T22:46:40.446Z,3.20
2022-10-10T22:49:43.845Z,3.47
2022-10-10T22:52:46.098Z,3.53
2022-10-10T22:55:47.985Z,3.50
2022-10-10T22:58:50.836Z,3.45
2022-10-10T23:01:53.301Z,3.40
2022-10-10T23:04:56.548Z,3.08
2022-10-10T23:07:58.508Z,3.33
2022-10-10T23:11:00.777Z,2.90
2022-10-10T23:14:02.758Z,3.35
2022-10-10T23:17:05.262Z,2.78
2022-10-10T23:20:09.929Z,2.80
2022-10-10T23:23:11.787Z,2.65
2022-10-10T23:26:14.127Z,2.60
2022-10-10T23:29:16.090Z,2.90
2022-10-10T23:32:18.066Z,2.65
2022-10-10T23:35:21.329Z,2.90
2022-10-10T23:38:23.260Z,3.60
2022-10-10T23:41:25.267Z,3.90
2022-10-10T23:44:27.469Z,4.18
2022-10-10T23:47:29.445Z,5.38
2022-10-10T23:50:32.789Z,5.10
2022-10-10T23:53:35.184Z,5.32
2022-10-10T23:56:37.075Z,4.75
2022-10-10T23:59:38.980Z,4.75
